createdAt,value
2018-05-27T00:01:07.019Z,81.6
2018-05-27T00:02:17.121Z,81.6
2018-05-27T00:03:26.979Z,81.98
2018-05-27T00:04:37.104Z,81.7
2018-05-27T00:05:46.902Z,81.79
2018-05-27T00:06:56.749Z,81.7
2018-05-27T00:08:06.286Z,81.98
2018-05-27T00:09:16.368Z,81.6
2018-05-27T00:10:26.163Z,81.7
2018-05-27T00:11:36.249Z,81.79
2018-05-27T00:12:46.313Z,81.5
2018-05-27T00:13:56.180Z,81.7
2018-05-27T00:15:05.743Z,81.5
2018-05-27T00:16:15.881Z,81.4
2018-05-27T00:17:25.957Z,81.6
2018-05-27T00:18:35.763Z,81.7
2018-05-27T00:19:45.576Z,81.6
2018-05-27T00:20:55.655Z,81.88
2018-05-27T00:22:05.793Z,81.79
2018-05-27T00:23:15.862Z,81.6
2018-05-27T00:24:25.954Z,81.79
2018-05-27T00:25:36.022Z,81.65
2018-05-27T00:26:46.121Z,81.75
2018-05-27T00:27:56.001Z,81.46
2018-05-27T00:29:06.085Z,81.46
2018-05-27T00:30:15.899Z,81.46
2018-05-27T00:31:25.981Z,81.75
2018-05-27T00:32:36.065Z,81.65
2018-05-27T00:33:45.923Z,81.56
2018-05-27T00:34:56.000Z,81.94
2018-05-27T00:36:06.104Z,81.84
2018-05-27T00:37:16.177Z,81.75
2018-05-27T00:38:25.992Z,81.84
2018-05-27T00:39:36.123Z,81.84
2018-05-27T00:40:46.204Z,81.75
2018-05-27T00:41:56.285Z,81.84
2018-05-27T00:43:06.362Z,81.56
2018-05-27T00:44:16.173Z,81.75
2018-05-27T00:45:25.992Z,81.65
2018-05-27T00:46:36.089Z,81.65
2018-05-27T00:47:46.195Z,81.65
2018-05-27T00:48:56.292Z,81.75
2018-05-27T00:50:06.118Z,81.75
2018-05-27T00:51:16.253Z,81.46
2018-05-27T00:52:26.331Z,81.46
2018-05-27T00:53:36.429Z,81.56
2018-05-27T00:54:46.516Z,81.75
2018-05-27T00:55:56.599Z,81.71
2018-05-27T00:57:06.497Z,81.65
2018-05-27T00:58:16.577Z,81.46
2018-05-27T00:59:26.650Z,81.52
2018-05-27T01:00:36.481Z,81.71
2018-05-27T01:01:46.544Z,81.71
2018-05-27T01:02:56.662Z,81.42
2018-05-27T01:04:06.503Z,81.71
2018-05-27T01:05:16.591Z,81.42
2018-05-27T01:06:26.405Z,81.23
2018-05-27T01:07:36.487Z,81.52
2018-05-27T01:08:46.606Z,81.23
2018-05-27T01:09:56.678Z,81.61
2018-05-27T01:11:06.523Z,81.42
2018-05-27T01:12:16.599Z,81.61
2018-05-27T01:13:26.672Z,81.52
2018-05-27T01:14:36.812Z,81.61
2018-05-27T01:15:46.910Z,81.52
2018-05-27T01:16:57.004Z,81.32
2018-05-27T01:18:07.091Z,81.32
2018-05-27T01:19:16.115Z,81.81
2018-05-27T01:20:25.702Z,81.52
2018-05-27T01:21:35.779Z,81.52
2018-05-27T01:22:45.849Z,81.61
2018-05-27T01:23:55.677Z,81.71
2018-05-27T01:25:05.759Z,81.52
2018-05-27T01:26:15.893Z,81.71
2018-05-27T01:27:25.964Z,81.32
2018-05-27T01:28:35.516Z,81.71
2018-05-27T01:29:45.593Z,81.61
2018-05-27T01:30:55.668Z,81.67
2018-05-27T01:32:05.522Z,81.76
2018-05-27T01:33:15.338Z,81.9
2018-05-27T01:34:25.408Z,81.09
2018-05-27T01:35:35.218Z,81.81
2018-05-27T01:36:45.304Z,81.9
2018-05-27T01:37:55.361Z,81.32
2018-05-27T01:39:05.170Z,81.9
2018-05-27T01:40:15.243Z,82.19
2018-05-27T01:41:25.323Z,81.76
2018-05-27T01:42:35.405Z,81.42
2018-05-27T01:43:45.522Z,81.57
2018-05-27T01:44:55.077Z,81.57
2018-05-27T01:46:05.179Z,81.9
2018-05-27T01:47:15.250Z,81.67
2018-05-27T01:48:25.067Z,81.76
2018-05-27T01:49:35.135Z,81.76
2018-05-27T01:50:44.939Z,81.86
2018-05-27T01:51:55.008Z,81.57
2018-05-27T01:53:05.093Z,81.67
2018-05-27T01:54:15.174Z,81.76
2018-05-27T01:55:25.025Z,81.67
2018-05-27T01:56:35.098Z,81.86
2018-05-27T01:57:44.930Z,81.86
2018-05-27T01:58:55.002Z,81.76
2018-05-27T02:00:05.084Z,81.67
2018-05-27T02:01:14.895Z,81.86
2018-05-27T02:02:24.984Z,81.76
2018-05-27T02:03:34.795Z,81.67
2018-05-27T02:04:44.863Z,81.57
2018-05-27T02:05:54.964Z,81.57
2018-05-27T02:07:04.827Z,81.57
2018-05-27T02:08:14.661Z,81.19
2018-05-27T02:09:24.744Z,81.86
2018-05-27T02:10:34.834Z,81.38
2018-05-27T02:11:44.923Z,81.57
2018-05-27T02:12:54.781Z,81.48
2018-05-27T02:14:04.878Z,81.48
2018-05-27T02:15:14.678Z,81.57
2018-05-27T02:16:24.497Z,81.67
2018-05-27T02:17:34.043Z,81.57
2018-05-27T02:18:44.170Z,81.57
2018-05-27T02:19:54.001Z,81.28
2018-05-27T02:21:04.110Z,81.48
2018-05-27T02:22:13.929Z,81.76
2018-05-27T02:23:24.021Z,81.76
2018-05-27T02:24:33.852Z,81.57
2018-05-27T02:25:43.646Z,81.38
2018-05-27T02:26:54.440Z,81.67
2018-05-27T02:28:04.516Z,81.57
2018-05-27T02:29:14.329Z,81.76
2018-05-27T02:30:24.390Z,81.76
2018-05-27T02:31:34.193Z,81.67
2018-05-27T02:32:43.802Z,81.72
2018-05-27T02:33:53.105Z,81.63
2018-05-27T02:35:03.206Z,81.19
2018-05-27T02:36:13.015Z,81.76
2018-05-27T02:37:23.112Z,81.48
2018-05-27T02:38:33.197Z,81.57
2018-05-27T02:39:43.283Z,81.57
2018-05-27T02:40:53.356Z,81.43
2018-05-27T02:42:03.444Z,81.53
2018-05-27T02:43:13.285Z,81.24
2018-05-27T02:44:23.148Z,81.53
2018-05-27T02:45:33.248Z,81.24
2018-05-27T02:46:43.051Z,81.53
2018-05-27T02:47:52.623Z,81.57
2018-05-27T02:49:02.416Z,81.24
2018-05-27T02:50:12.554Z,81.53
2018-05-27T02:51:22.646Z,81.24
2018-05-27T02:52:32.730Z,81.34
2018-05-27T02:53:42.808Z,81.53
2018-05-27T02:54:52.905Z,81.53
2018-05-27T02:56:02.819Z,81.43
2018-05-27T02:57:12.896Z,81.53
2018-05-27T02:58:22.993Z,81.24
2018-05-27T02:59:33.133Z,81.24
2018-05-27T03:00:43.217Z,81.24
2018-05-27T03:01:53.328Z,81.43
2018-05-27T03:03:03.405Z,81.15
2018-05-27T03:35:08.805Z,76.04
2018-05-27T03:36:18.867Z,75.65
2018-05-27T03:37:28.938Z,76.23
2018-05-27T03:38:39.009Z,77.29
2018-05-27T03:39:49.065Z,77.48
2018-05-27T03:40:59.153Z,78.34
2018-05-27T03:42:08.963Z,78.57
2018-05-27T03:43:18.771Z,79.24
2018-05-27T03:44:28.571Z,79.14
2018-05-27T03:45:38.375Z,79.44
2018-05-27T03:46:48.505Z,79.91
2018-05-27T03:47:58.579Z,79.67
2018-05-27T03:49:08.385Z,79.86
2018-05-27T03:50:18.469Z,79.76
2018-05-27T03:51:28.561Z,80.28
2018-05-27T03:52:38.687Z,80.09
2018-05-27T03:53:48.785Z,80.38
2018-05-27T03:54:59.108Z,80.42
2018-05-27T03:56:08.665Z,80.32
2018-05-27T03:57:18.737Z,80.42
2018-05-27T03:58:28.824Z,80.32
2018-05-27T03:59:38.900Z,80.32
2018-05-27T04:00:48.990Z,80.27
2018-05-27T04:01:59.062Z,80.55
2018-05-27T04:03:09.153Z,80.46
2018-05-27T04:04:19.301Z,80.17
2018-05-27T04:05:29.356Z,80.27
2018-05-27T04:06:39.181Z,80.4
2018-05-27T04:07:48.741Z,80.4
2018-05-27T04:08:58.850Z,80.4
2018-05-27T04:10:08.964Z,80.5
2018-05-27T04:11:18.772Z,80.69
2018-05-27T04:12:28.856Z,80.11
2018-05-27T04:13:38.940Z,79.63
2018-05-27T04:14:48.764Z,79.96
2018-05-27T04:15:58.840Z,80.06
2018-05-27T04:17:08.915Z,79.96
2018-05-27T04:18:18.992Z,79.48
2018-05-27T04:19:29.081Z,77.73
2018-05-27T04:20:38.887Z,74.51
2018-05-27T04:21:48.968Z,73.1
2018-05-27T04:22:58.775Z,70.98
2018-05-27T04:24:08.842Z,70.57
2018-05-27T04:25:18.136Z,69.86
2018-05-27T04:26:27.969Z,69.15
2018-05-27T04:27:38.066Z,69.42
2018-05-27T04:28:48.142Z,69.58
2018-05-27T04:29:58.241Z,68.84
2018-05-27T04:31:08.328Z,68.9
2018-05-27T04:32:18.398Z,68.55
2018-05-27T04:33:28.481Z,68.62
2018-05-27T04:34:38.303Z,68.36
2018-05-27T04:35:48.387Z,68.68
2018-05-27T04:36:58.470Z,68.71
2018-05-27T04:38:08.549Z,69.24
2018-05-27T04:39:18.373Z,68.85
2018-05-27T04:40:27.950Z,68.68
2018-05-27T04:41:38.021Z,68.23
2018-05-27T04:42:48.119Z,68.23
2018-05-27T04:43:57.947Z,68.55
2018-05-27T04:45:07.756Z,68.59
2018-05-27T04:46:17.571Z,68.49
2018-05-27T04:47:27.381Z,69.02
2018-05-27T04:48:37.191Z,69.41
2018-05-27T04:49:47.267Z,69.44
2018-05-27T04:50:57.171Z,69.02
2018-05-27T04:52:07.258Z,69.34
2018-05-27T04:53:17.337Z,69.73
2018-05-27T04:54:27.170Z,69.44
2018-05-27T04:55:37.256Z,69.18
2018-05-27T04:56:47.349Z,69.28
2018-05-27T04:57:57.176Z,69.48
2018-05-27T04:59:07.350Z,69.48
2018-05-27T05:00:17.568Z,69.41
2018-05-27T05:01:27.664Z,69.51
2018-05-27T05:02:37.733Z,69.41
2018-05-27T05:03:47.040Z,69.12
2018-05-27T05:04:57.163Z,68.66
2018-05-27T05:06:07.264Z,68.85
2018-05-27T05:07:17.089Z,68.76
2018-05-27T05:08:27.179Z,68.79
2018-05-27T05:09:36.998Z,68.89
2018-05-27T05:10:47.080Z,68.79
2018-05-27T05:11:56.890Z,68.99
2018-05-27T05:13:06.970Z,68.89
2018-05-27T05:14:16.843Z,69.09
2018-05-27T05:15:26.932Z,68.79
2018-05-27T05:16:36.480Z,68.82
2018-05-27T05:17:46.088Z,69.12
2018-05-27T05:18:56.177Z,69.22
2018-05-27T05:20:06.300Z,68.63
2018-05-27T05:21:16.395Z,68.82
2018-05-27T05:22:26.237Z,68.92
2018-05-27T05:23:36.315Z,68.96
2018-05-27T05:24:46.441Z,68.86
2018-05-27T05:25:56.587Z,68.66
2018-05-27T05:27:06.415Z,68.96
2018-05-27T05:28:16.503Z,69.45
2018-05-27T05:29:26.579Z,69.61
2018-05-27T05:30:36.402Z,69.12
2018-05-27T05:31:46.542Z,69.22
2018-05-27T05:32:56.630Z,69.61
2018-05-27T05:34:06.716Z,69.42
2018-05-27T05:35:16.283Z,69.42
2018-05-27T05:36:26.486Z,69.42
2018-05-27T05:37:36.688Z,70.1
2018-05-27T05:38:46.769Z,70.1
2018-05-27T05:39:56.848Z,70.2
2018-05-27T05:41:06.685Z,69.97
2018-05-27T05:42:16.506Z,69.97
2018-05-27T05:43:26.598Z,69.97
2018-05-27T05:44:36.725Z,70.56
2018-05-27T05:45:46.823Z,70.17
2018-05-27T05:46:56.370Z,70.26
2018-05-27T05:48:06.464Z,70.26
2018-05-27T05:49:16.375Z,70.53
2018-05-27T05:50:26.355Z,71.31
2018-05-27T05:51:36.438Z,70.82
2018-05-27T05:52:46.532Z,71.01
2018-05-27T05:53:56.616Z,70.72
2018-05-27T05:55:06.763Z,70.78
2018-05-27T05:56:16.853Z,71.18
2018-05-27T05:57:26.950Z,71.67
2018-05-27T05:58:37.036Z,71.53
2018-05-27T05:59:46.848Z,71.93
2018-05-27T06:00:56.696Z,71.53
2018-05-27T06:02:06.783Z,72.13
2018-05-27T06:03:16.863Z,72.19
2018-05-27T06:04:26.948Z,72.97
2018-05-27T06:05:37.016Z,72.58
2018-05-27T06:06:47.130Z,72.74
2018-05-27T06:07:57.210Z,72.74
2018-05-27T06:09:07.298Z,73.13
2018-05-27T06:10:17.382Z,73.13
2018-05-27T06:11:26.957Z,73.1
2018-05-27T06:12:36.248Z,73.59
2018-05-27T06:13:46.072Z,74.14
2018-05-27T06:14:55.636Z,75.48
2018-05-27T06:16:04.673Z,77.32
2018-05-27T06:17:14.242Z,77.67
2018-05-27T06:18:23.855Z,78.77
2018-05-27T06:19:33.729Z,78.92
2018-05-27T06:20:43.668Z,78.79
2018-05-27T06:21:53.506Z,78.11
2018-05-27T06:23:02.796Z,77.46
2018-05-27T06:24:12.626Z,75.64
2018-05-27T06:25:22.441Z,75.29
2018-05-27T06:26:32.520Z,75
2018-05-27T06:27:42.336Z,75.1
2018-05-27T06:28:52.159Z,74.8
2018-05-27T06:30:02.318Z,74.8
2018-05-27T06:31:12.423Z,75
2018-05-27T06:32:22.522Z,75
2018-05-27T06:33:32.343Z,74.8
2018-05-27T06:34:42.424Z,75.1
2018-05-27T06:35:51.978Z,74.61
2018-05-27T06:37:02.080Z,75.2
2018-05-27T06:38:11.646Z,75.49
2018-05-27T06:39:21.199Z,75.39
2018-05-27T06:40:31.314Z,75.54
2018-05-27T06:41:41.397Z,76.03
2018-05-27T06:42:50.942Z,75.93
2018-05-27T06:44:00.769Z,75.9
2018-05-27T06:45:10.339Z,76.68
2018-05-27T06:46:20.413Z,76.58
2018-05-27T06:47:30.561Z,76.48
2018-05-27T06:48:40.616Z,76.68
2018-05-27T06:49:50.430Z,76.84
2018-05-27T06:51:00.263Z,77.03
2018-05-27T06:52:09.819Z,76.93
2018-05-27T06:53:19.905Z,76.8
2018-05-27T06:54:29.988Z,77.29
2018-05-27T06:55:40.080Z,77.68
2018-05-27T06:56:50.166Z,77.78
2018-05-27T06:58:00.257Z,77.68
2018-05-27T06:59:10.332Z,77.25
2018-05-27T07:00:20.434Z,77.44
2018-05-27T07:01:30.536Z,77.64
2018-05-27T07:02:40.348Z,77.44
2018-05-27T07:03:50.440Z,77.83
2018-05-27T07:05:00.439Z,78.58
2018-05-27T07:06:10.554Z,78.58
2018-05-27T07:07:20.648Z,78.87
2018-05-27T07:08:30.742Z,78.87
2018-05-27T07:09:40.839Z,78.83
2018-05-27T07:10:50.952Z,78.87
2018-05-27T07:12:01.013Z,78.77
2018-05-27T07:13:10.823Z,78.96
2018-05-27T07:14:20.910Z,79.06
2018-05-27T07:15:30.737Z,78.67
2018-05-27T07:16:40.344Z,78.58
2018-05-27T07:17:50.424Z,79.06
2018-05-27T07:19:00.516Z,78.67
2018-05-27T07:20:10.346Z,78.67
2018-05-27T07:21:20.426Z,78.67
2018-05-27T07:22:30.257Z,78.58
2018-05-27T07:23:40.340Z,78.38
2018-05-27T07:24:50.415Z,78.44
2018-05-27T07:26:00.498Z,78.58
2018-05-27T07:27:10.589Z,78.38
2018-05-27T07:28:20.159Z,78.67
2018-05-27T07:29:30.234Z,78.67
2018-05-27T07:30:39.795Z,78.58
2018-05-27T07:31:49.882Z,77.99
2018-05-27T07:32:59.718Z,78.48
2018-05-27T07:34:09.790Z,78.52
2018-05-27T07:35:19.861Z,78.28
2018-05-27T07:36:29.683Z,78.28
2018-05-27T07:37:39.533Z,78.22
2018-05-27T07:38:49.622Z,78.67
2018-05-27T07:39:59.448Z,78.48
2018-05-27T07:41:09.536Z,78.58
2018-05-27T07:42:19.644Z,78.19
2018-05-27T07:43:29.739Z,78.19
2018-05-27T07:44:39.864Z,78.61
2018-05-27T07:45:49.964Z,78.52
2018-05-27T07:47:00.073Z,78.42
2018-05-27T07:48:10.193Z,78.03
2018-05-27T07:49:20.315Z,78.03
2018-05-27T07:50:30.161Z,77.93
2018-05-27T07:51:40.244Z,77.93
2018-05-27T07:52:50.340Z,78.13
2018-05-27T07:54:00.430Z,78.32
2018-05-27T07:55:10.519Z,78.13
2018-05-27T07:56:20.382Z,78.16
2018-05-27T07:57:30.208Z,78.06
2018-05-27T07:58:40.320Z,78.26
2018-05-27T07:59:50.165Z,78.16
2018-05-27T08:01:00.258Z,78.26
2018-05-27T08:02:10.094Z,78.26
2018-05-27T08:03:19.653Z,77.87
2018-05-27T08:04:29.489Z,77.87
2018-05-27T08:05:39.301Z,78.45
2018-05-27T08:06:49.396Z,77.91
2018-05-27T08:07:59.215Z,78.01
2018-05-27T08:09:09.306Z,78.2
2018-05-27T08:10:19.387Z,77.91
2018-05-27T08:11:29.468Z,77.56
2018-05-27T08:12:39.589Z,77.46
2018-05-27T08:13:49.673Z,77.85
2018-05-27T08:14:59.493Z,78.14
2018-05-27T08:16:09.330Z,78.05
2018-05-27T08:17:19.424Z,78.14
2018-05-27T08:18:29.505Z,78.11
2018-05-27T08:19:39.598Z,78.2
2018-05-27T08:20:49.587Z,78.3
2018-05-27T08:21:59.712Z,78.3
2018-05-27T08:23:09.547Z,77.91
2018-05-27T08:24:19.638Z,78.4
2018-05-27T08:25:29.775Z,78.14
2018-05-27T08:26:39.649Z,78.24
2018-05-27T08:27:49.748Z,78.44
2018-05-27T08:28:59.848Z,78.34
2018-05-27T08:30:09.685Z,78.3
2018-05-27T08:31:19.840Z,78.4
2018-05-27T08:32:29.958Z,78.14
2018-05-27T08:33:39.788Z,78.14
2018-05-27T08:34:49.626Z,78.14
2018-05-27T08:35:59.721Z,77.95
2018-05-27T08:37:09.823Z,77.85
2018-05-27T08:38:19.655Z,78.18
2018-05-27T08:39:29.771Z,77.89
2018-05-27T08:40:39.890Z,77.69
2018-05-27T08:41:49.970Z,77.79
2018-05-27T08:43:00.066Z,77.98
2018-05-27T08:44:10.172Z,77.79
2018-05-27T08:45:20.256Z,78.18
2018-05-27T08:46:30.104Z,78.18
2018-05-27T08:47:40.220Z,78.18
2018-05-27T08:48:50.350Z,77.73
2018-05-27T08:50:00.597Z,77.83
2018-05-27T08:51:10.700Z,77.54
2018-05-27T08:52:20.528Z,77.54
2018-05-27T08:53:30.750Z,77.54
2018-05-27T08:54:40.845Z,78.26
2018-05-27T08:55:50.720Z,78.32
2018-05-27T08:57:00.806Z,78.13
2018-05-27T08:58:10.933Z,78.26
2018-05-27T08:59:20.566Z,78.16
2018-05-27T09:00:30.746Z,78.36
2018-05-27T09:01:40.593Z,78.36
2018-05-27T09:02:50.686Z,78.16
2018-05-27T09:04:00.801Z,78.45
2018-05-27T09:05:10.627Z,78.55
2018-05-27T09:06:20.572Z,78.26
2018-05-27T09:07:30.775Z,78.26
2018-05-27T09:08:40.598Z,78.45
2018-05-27T09:09:50.703Z,78.22
2018-05-27T09:11:00.552Z,78.45
2018-05-27T09:12:10.373Z,78.61
2018-05-27T09:13:20.473Z,78.61
2018-05-27T09:14:30.560Z,78.13
2018-05-27T09:15:40.709Z,78.45
2018-05-27T09:16:50.820Z,78.26
2018-05-27T09:18:00.696Z,78.06
2018-05-27T09:19:10.523Z,78.16
2018-05-27T09:20:20.378Z,78.26
2018-05-27T09:21:30.473Z,78.26
2018-05-27T09:22:40.038Z,77.91
2018-05-27T09:23:50.135Z,77.71
2018-05-27T09:25:00.431Z,77.51
2018-05-27T09:26:10.716Z,77.61
2018-05-27T09:27:20.797Z,77.91
2018-05-27T09:28:30.900Z,78.3
2018-05-27T09:29:40.740Z,78
2018-05-27T09:30:50.648Z,78.2
2018-05-27T09:32:00.688Z,78
2018-05-27T09:33:10.805Z,78.3
2018-05-27T09:34:20.906Z,78
2018-05-27T09:35:31.004Z,77.42
2018-05-27T09:36:41.116Z,77.71
2018-05-27T09:37:51.226Z,78
2018-05-27T09:39:01.100Z,77.71
2018-05-27T09:40:11.208Z,77.61
2018-05-27T09:41:21.387Z,77.84
2018-05-27T09:42:31.480Z,77.65
2018-05-27T09:43:41.572Z,77.26
2018-05-27T09:44:51.663Z,77.1
2018-05-27T09:46:01.522Z,77
2018-05-27T09:47:11.682Z,76.94
2018-05-27T09:48:21.785Z,77.33
2018-05-27T09:49:31.865Z,77.33
2018-05-27T09:50:41.424Z,77.04
2018-05-27T09:51:51.514Z,77.23
2018-05-27T09:53:01.619Z,77.04
2018-05-27T09:54:11.739Z,77.53
2018-05-27T09:55:21.585Z,77.33
2018-05-27T09:56:31.426Z,77.23
2018-05-27T09:57:41.526Z,77.83
2018-05-27T09:58:51.479Z,77.04
2018-05-27T10:00:01.683Z,77.23
2018-05-27T10:01:11.868Z,77.47
2018-05-27T10:02:21.965Z,77.37
2018-05-27T10:03:31.816Z,77.37
2018-05-27T10:04:41.951Z,77.27
2018-05-27T10:05:52.030Z,77.27
2018-05-27T10:07:02.128Z,77.37
2018-05-27T10:08:11.994Z,77.67
2018-05-27T10:09:22.089Z,77.86
2018-05-27T10:10:32.167Z,77.47
2018-05-27T10:11:42.357Z,77.37
2018-05-27T10:12:52.812Z,77.27
2018-05-27T10:14:02.619Z,77.22
2018-05-27T10:15:12.719Z,77.22
2018-05-27T10:16:22.884Z,77.61
2018-05-27T10:17:32.725Z,77.08
2018-05-27T10:18:42.836Z,77.67
2018-05-27T10:19:52.930Z,77.86
2018-05-27T10:21:03.047Z,78.06
2018-05-27T10:22:12.925Z,77.86
2018-05-27T10:23:22.767Z,77.62
2018-05-27T10:24:32.869Z,78.16
2018-05-27T10:25:42.968Z,77.96
2018-05-27T10:26:53.343Z,77.86
2018-05-27T10:28:03.468Z,77.96
2018-05-27T10:29:13.556Z,78.16
2018-05-27T10:30:23.662Z,78.02
2018-05-27T10:31:33.768Z,77.92
2018-05-27T10:32:43.923Z,77.92
2018-05-27T10:33:54.242Z,78.7
2018-05-27T10:35:04.330Z,78.96
2018-05-27T10:36:14.424Z,79.51
2018-05-27T10:37:24.521Z,78.88
2018-05-27T10:38:34.623Z,78.82
2018-05-27T10:39:44.743Z,78.53
2018-05-27T10:40:54.881Z,78.28
2018-05-27T10:42:04.981Z,77.98
2018-05-27T10:43:15.081Z,77.62
2018-05-27T10:44:25.239Z,77.53
2018-05-27T10:45:35.465Z,77.23
2018-05-27T10:46:45.560Z,77.27
2018-05-27T10:47:55.698Z,77.57
2018-05-27T10:49:05.797Z,78.02
2018-05-27T10:50:15.906Z,78.31
2018-05-27T10:51:26.039Z,79.35
2018-05-27T10:52:36.130Z,78.82
2018-05-27T10:53:46.225Z,78.38
2018-05-27T10:54:56.325Z,77.92
2018-05-27T10:56:06.169Z,77.43
2018-05-27T10:57:16.323Z,77.43
2018-05-27T10:58:26.454Z,77.47
2018-05-27T10:59:36.012Z,77.37
2018-05-27T11:00:45.855Z,77.27
2018-05-27T11:01:55.713Z,77.43
2018-05-27T11:03:05.561Z,78.41
2018-05-27T11:04:15.660Z,79.02
2018-05-27T11:05:25.749Z,78.33
2018-05-27T11:06:35.865Z,77.78
2018-05-27T11:07:45.964Z,77.39
2018-05-27T11:08:56.055Z,77.2
2018-05-27T11:10:05.924Z,77.04
2018-05-27T11:11:16.037Z,77.43
2018-05-27T11:12:25.602Z,77.14
2018-05-27T11:13:35.678Z,76.98
2018-05-27T11:14:45.793Z,77.08
2018-05-27T11:15:55.905Z,77.27
2018-05-27T11:17:06.016Z,77.47
2018-05-27T11:18:16.104Z,77.27
2018-05-27T11:19:26.190Z,77.17
2018-05-27T11:20:36.284Z,77.08
2018-05-27T11:21:46.513Z,77.17
2018-05-27T11:22:56.624Z,77.27
2018-05-27T11:24:06.773Z,77.27
2018-05-27T11:25:16.889Z,77.01
2018-05-27T11:26:27.165Z,77.12
2018-05-27T11:27:37.293Z,77.12
2018-05-27T11:28:47.434Z,78
2018-05-27T11:29:57.642Z,78.7
2018-05-27T11:31:07.815Z,78.02
2018-05-27T11:32:17.649Z,77.92
2018-05-27T11:33:27.790Z,78.02
2018-05-27T11:34:37.604Z,77.67
2018-05-27T11:35:47.699Z,77.27
2018-05-27T11:36:57.644Z,77.08
2018-05-27T11:38:07.957Z,77.37
2018-05-27T11:39:18.089Z,77.61
2018-05-27T11:40:28.226Z,77.57
2018-05-27T11:41:38.350Z,77.61
2018-05-27T11:42:48.454Z,78.45
2018-05-27T11:43:58.609Z,78.28
2018-05-27T11:45:08.436Z,77.92
2018-05-27T11:46:18.538Z,77.86
2018-05-27T11:47:28.638Z,77.37
2018-05-27T11:48:38.766Z,77.41
2018-05-27T11:49:48.795Z,77.01
2018-05-27T11:50:58.891Z,76.76
2018-05-27T11:52:08.992Z,78.23
2018-05-27T11:53:19.102Z,78.55
2018-05-27T11:54:28.674Z,77.83
2018-05-27T11:55:38.556Z,77.96
2018-05-27T11:56:48.132Z,77.76
2018-05-27T11:57:58.234Z,77.67
2018-05-27T11:59:08.345Z,77.31
2018-05-27T12:00:18.462Z,78.49
2018-05-27T12:01:28.577Z,78.94
2018-05-27T12:02:38.694Z,78.9
2018-05-27T12:03:48.257Z,78.51
2018-05-27T12:04:58.087Z,77.96
2018-05-27T12:06:08.167Z,77.57
2018-05-27T12:07:18.351Z,77.86
2018-05-27T12:08:28.192Z,77.41
2018-05-27T12:09:38.776Z,77.31
2018-05-27T12:10:49.389Z,77.12
2018-05-27T12:11:59.504Z,77.9
2018-05-27T12:13:09.329Z,77.12
2018-05-27T12:14:19.442Z,77.7
2018-05-27T12:15:29.548Z,77.61
2018-05-27T12:16:39.400Z,77.41
2018-05-27T12:17:49.506Z,77.45
2018-05-27T12:18:59.641Z,77.45
2018-05-27T12:20:09.731Z,77.55
2018-05-27T12:21:19.851Z,77.74
2018-05-27T12:22:29.947Z,77.45
2018-05-27T12:23:40.066Z,77.64
2018-05-27T12:24:50.190Z,77.15
2018-05-27T12:26:00.295Z,77.25
2018-05-27T12:27:10.119Z,77.35
2018-05-27T12:28:20.197Z,77
2018-05-27T12:29:30.293Z,77
2018-05-27T12:30:40.201Z,76.9
2018-05-27T12:31:50.298Z,76.8
2018-05-27T12:33:00.128Z,76.9
2018-05-27T12:34:10.225Z,76.9
2018-05-27T12:35:20.071Z,76.9
2018-05-27T12:36:30.452Z,76.9
2018-05-27T12:37:40.552Z,77.52
2018-05-27T12:38:50.664Z,77.48
2018-05-27T12:40:00.767Z,77.74
2018-05-27T12:41:10.902Z,78.58
2018-05-27T12:42:21.054Z,79.33
2018-05-27T12:43:31.147Z,79.19
2018-05-27T12:44:41.240Z,79.19
2018-05-27T12:45:51.340Z,78.35
2018-05-27T12:47:01.450Z,78.25
2018-05-27T12:48:11.298Z,78.55
2018-05-27T12:49:21.426Z,78.35
2018-05-27T12:50:31.273Z,78.45
2018-05-27T12:51:41.377Z,78.45
2018-05-27T12:52:51.467Z,78.45
2018-05-27T12:54:01.293Z,78.35
2018-05-27T12:55:11.382Z,78.45
2018-05-27T12:56:20.978Z,78.64
2018-05-27T12:57:31.086Z,78.55
2018-05-27T12:58:41.183Z,78.61
2018-05-27T12:59:51.280Z,78.61
2018-05-27T13:01:01.371Z,78.67
2018-05-27T13:02:11.204Z,78.47
2018-05-27T13:03:21.285Z,78.77
2018-05-27T13:04:31.112Z,78.77
2018-05-27T13:05:40.975Z,79.16
2018-05-27T13:06:51.068Z,78.82
2018-05-27T13:08:00.907Z,78.77
2018-05-27T13:09:10.980Z,78.96
2018-05-27T13:10:20.795Z,78.38
2018-05-27T13:11:30.945Z,78.47
2018-05-27T13:12:41.031Z,77.98
2018-05-27T13:13:51.141Z,77.59
2018-05-27T13:15:01.244Z,77.73
2018-05-27T13:16:11.096Z,77.78
2018-05-27T13:17:21.510Z,77.83
2018-05-27T13:18:31.623Z,77.92
2018-05-27T13:19:41.443Z,78.02
2018-05-27T13:20:51.577Z,78.02
2018-05-27T13:22:01.694Z,77.73
2018-05-27T13:23:11.785Z,77.73
2018-05-27T13:24:21.898Z,78.31
2018-05-27T13:25:32.008Z,78.7
2018-05-27T13:26:41.824Z,78.86
2018-05-27T13:27:51.661Z,78.57
2018-05-27T13:29:01.773Z,78.67
2018-05-27T13:30:11.901Z,78.96
2018-05-27T13:31:21.751Z,78.86
2018-05-27T13:32:31.380Z,78.96
2018-05-27T13:33:41.484Z,78.67
2018-05-27T13:34:51.412Z,78.57
2018-05-27T13:36:02.096Z,78.67
2018-05-27T13:37:13.195Z,78.17
2018-05-27T13:38:23.801Z,78.38
2018-05-27T13:39:34.401Z,78.38
2018-05-27T13:40:45.613Z,78.57
2018-05-27T13:41:56.758Z,78.38
2018-05-27T13:43:07.675Z,78.38
2018-05-27T13:44:18.626Z,78.47
2018-05-27T13:45:29.243Z,77.98
2018-05-27T13:46:39.632Z,78.17
2018-05-27T13:47:49.810Z,78.08
2018-05-27T13:49:00.692Z,77.78
2018-05-27T13:50:11.897Z,77.88
2018-05-27T13:51:23.217Z,77.62
2018-05-27T13:52:33.907Z,78.02
2018-05-27T13:53:45.014Z,78.02
2018-05-27T13:54:58.262Z,77.88
2018-05-27T13:56:12.869Z,77.62
2018-05-27T13:57:23.478Z,77.73
2018-05-27T13:58:33.620Z,78.12
2018-05-27T13:59:44.249Z,78.02
2018-05-27T14:00:54.622Z,77.83
2018-05-27T14:02:04.772Z,77.92
2018-05-27T14:03:14.960Z,77.86
2018-05-27T14:04:25.139Z,77.83
2018-05-27T14:05:35.231Z,78.06
2018-05-27T14:06:45.084Z,77.86
2018-05-27T14:07:55.469Z,77.86
2018-05-27T14:09:05.513Z,77.83
2018-05-27T14:10:15.844Z,77.73
2018-05-27T14:11:25.898Z,77.83
2018-05-27T14:12:35.997Z,77.96
2018-05-27T14:13:46.125Z,77.47
2018-05-27T14:14:56.246Z,77.47
2018-05-27T14:16:06.524Z,78.16
2018-05-27T14:17:16.749Z,77.57
2018-05-27T14:18:26.917Z,77.57
2018-05-27T14:19:37.053Z,77.57
2018-05-27T14:20:47.166Z,77.76
2018-05-27T14:21:57.357Z,77.27
2018-05-27T14:23:07.458Z,77.08
2018-05-27T14:24:17.627Z,77.47
2018-05-27T14:25:27.740Z,77.17
2018-05-27T14:26:37.578Z,77.37
2018-05-27T14:27:47.436Z,77.37
2018-05-27T14:28:57.269Z,77.57
2018-05-27T14:30:07.380Z,77.37
2018-05-27T14:31:17.535Z,77.47
2018-05-27T14:32:27.704Z,77.37
2018-05-27T14:33:37.851Z,77.41
2018-05-27T14:34:47.961Z,77.37
2018-05-27T14:35:57.833Z,77.51
2018-05-27T14:37:07.943Z,77.67
2018-05-27T14:38:18.060Z,77.37
2018-05-27T14:39:28.274Z,77.27
2018-05-27T14:40:38.370Z,77.57
2018-05-27T14:41:48.241Z,77.37
2018-05-27T14:42:58.073Z,77.27
2018-05-27T14:44:08.201Z,77.47
2018-05-27T14:45:18.310Z,77.47
2018-05-27T14:46:28.153Z,77.27
2018-05-27T14:47:38.632Z,77.37
2018-05-27T14:48:48.945Z,77.47
2018-05-27T14:49:58.779Z,77.27
2018-05-27T14:51:08.894Z,77.17
2018-05-27T14:52:19.020Z,77.31
2018-05-27T14:53:29.183Z,77.22
2018-05-27T14:54:39.279Z,77.31
2018-05-27T14:55:49.406Z,77.22
2018-05-27T14:56:59.564Z,77.01
2018-05-27T14:58:09.697Z,77.31
2018-05-27T14:59:19.817Z,77.22
2018-05-27T15:00:29.918Z,77.41
2018-05-27T15:01:40.014Z,77.08
2018-05-27T15:02:49.912Z,77.37
2018-05-27T15:04:00.074Z,77.37
2018-05-27T15:05:10.058Z,77.51
2018-05-27T15:06:19.910Z,77.37
2018-05-27T15:07:30.014Z,77.57
2018-05-27T15:08:39.943Z,77.61
2018-05-27T15:09:50.063Z,77.61
2018-05-27T15:11:00.157Z,77.61
2018-05-27T15:12:10.346Z,77.31
2018-05-27T15:13:20.748Z,77.51
2018-05-27T15:14:30.840Z,77.41
2018-05-27T15:15:40.995Z,77.7
2018-05-27T15:16:51.137Z,77.31
2018-05-27T15:18:01.238Z,77.31
2018-05-27T15:19:11.335Z,77.41
2018-05-27T15:20:21.480Z,77.17
2018-05-27T15:21:31.593Z,77.86
2018-05-27T15:22:41.691Z,77.67
2018-05-27T15:23:51.791Z,77.67
2018-05-27T15:25:01.917Z,77.47
2018-05-27T15:26:11.951Z,78.06
2018-05-27T15:27:22.049Z,78.16
2018-05-27T15:28:31.873Z,78.16
2018-05-27T15:29:41.986Z,77.92
2018-05-27T15:30:52.087Z,77.96
2018-05-27T15:32:02.301Z,77.83
2018-05-27T15:33:12.019Z,77.83
2018-05-27T15:34:21.882Z,77.53
2018-05-27T15:35:31.732Z,77.62
2018-05-27T15:36:41.847Z,77.92